Time,TemperatureF,DewpointF,PressureIn,WindDirection,WindDirectionDegrees,WindSpeedMPH,WindSpeedGustMPH,Humidity,HourlyPrecipIn,Conditions,Clouds,dailyrainin,SoftwareType,DateUTC
2013-07-21 00:01:00,90.0,48.0,29.82,ENE,75,2.0,14.0,24,0.00,,,0.00,,2013-07-21 07:01:00,
2013-07-21 00:11:00,89.0,49.0,29.83,WNW,289,5.0,9.0,25,0.00,,,0.00,,2013-07-21 07:11:00,
2013-07-21 00:22:00,89.0,49.0,29.83,NNE,25,2.0,9.0,25,0.00,,,0.00,,2013-07-21 07:22:00,
2013-07-21 00:32:00,88.0,49.0,29.83,NW,309,2.0,5.0,26,0.00,,,0.00,,2013-07-21 07:32:00,
2013-07-21 00:43:00,87.0,47.0,29.83,South,182,5.0,7.0,25,0.00,,,0.00,,2013-07-21 07:43:00,
2013-07-21 00:52:00,88.0,49.0,29.83,South,171,7.0,10.0,26,0.00,,,0.00,,2013-07-21 07:52:00,
2013-07-21 01:01:00,88.0,49.0,29.83,South,171,4.0,6.0,26,0.00,,,0.00,,2013-07-21 08:01:00,
2013-07-21 01:11:00,87.0,48.0,29.84,SSE,151,8.0,14.0,26,0.00,,,0.00,,2013-07-21 08:11:00,
2013-07-21 01:22:00,87.0,48.0,29.83,SSE,159,9.0,15.0,26,0.00,,,0.00,,2013-07-21 08:22:00,
2013-07-21 01:32:00,88.0,49.0,29.82,South,182,14.0,19.0,26,0.00,,,0.00,,2013-07-21 08:32:00,
2013-07-21 01:42:00,88.0,50.0,29.82,South,180,12.0,18.0,27,0.00,,,0.00,,2013-07-21 08:42:00,
2013-07-21 01:52:00,88.0,49.0,29.82,South,188,8.0,14.0,26,0.00,,,0.00,,2013-07-21 08:52:00,
2013-07-21 02:02:00,88.0,48.0,29.82,SSW,198,10.0,14.0,25,0.00,,,0.00,,2013-07-21 09:02:00,
2013-07-21 02:11:00,88.0,49.0,29.83,SE,144,7.0,17.0,26,0.00,,,0.00,,2013-07-21 09:11:00,
2013-07-21 02:22:00,87.0,54.0,29.83,SSE,164,15.0,19.0,32,0.00,,,0.00,,2013-07-21 09:22:00,
2013-07-21 02:32:00,86.0,54.0,29.84,SSE,149,12.0,20.0,33,0.00,,,0.00,,2013-07-21 09:32:00,
2013-07-21 02:42:00,86.0,54.0,29.83,South,175,16.0,20.0,34,0.00,,,0.00,,2013-07-21 09:42:00,
2013-07-21 02:52:00,86.0,54.0,29.83,SSE,161,16.0,22.0,34,0.00,,,0.00,,2013-07-21 09:52:00,
2013-07-21 03:01:00,85.0,53.0,29.84,SSE,167,13.0,18.0,34,0.00,,,0.00,,2013-07-21 10:01:00,
2013-07-21 03:11:00,85.0,54.0,29.85,South,176,16.0,20.0,35,0.00,,,0.00,,2013-07-21 10:11:00,
2013-07-21 03:22:00,85.0,55.0,29.85,South,171,12.0,21.0,36,0.00,,,0.00,,2013-07-21 10:22:00,
2013-07-21 03:43:00,84.0,55.0,29.86,South,176,14.0,16.0,37,0.00,,,0.00,,2013-07-21 10:43:00,
2013-07-21 03:52:00,84.0,55.0,29.86,South,180,5.0,19.0,37,0.00,,,0.00,,2013-07-21 10:52:00,
2013-07-21 04:02:00,84.0,56.0,29.86,SSW,198,3.0,10.0,38,0.00,,,0.00,,2013-07-21 11:02:00,
2013-07-21 04:11:00,84.0,56.0,29.86,SSW,195,9.0,15.0,38,0.00,,,0.00,,2013-07-21 11:11:00,
2013-07-21 04:22:00,83.0,54.0,29.86,SSW,207,3.0,12.0,37,0.00,,,0.00,,2013-07-21 11:22:00,
2013-07-21 04:32:00,83.0,55.0,29.86,SSW,209,4.0,5.0,38,0.00,,,0.00,,2013-07-21 11:32:00,
2013-07-21 04:42:00,83.0,55.0,29.85,SW,231,5.0,7.0,38,0.00,,,0.00,,2013-07-21 11:42:00,
2013-07-21 04:52:00,83.0,55.0,29.85,SW,222,6.0,16.0,38,0.00,,,0.00,,2013-07-21 11:52:00,
2013-07-21 05:01:00,83.0,54.0,29.84,WSW,240,7.0,12.0,37,0.00,,,0.00,,2013-07-21 12:01:00,
2013-07-21 05:11:00,82.0,53.0,29.85,WSW,257,5.0,13.0,37,0.00,,,0.00,,2013-07-21 12:11:00,
2013-07-21 05:22:00,81.0,51.0,29.85,SW,221,5.0,9.0,35,0.00,,,0.00,,2013-07-21 12:22:00,
2013-07-21 05:32:00,80.0,51.0,29.86,West,261,4.0,9.0,36,0.00,,,0.00,,2013-07-21 12:32:00,
2013-07-21 05:43:00,80.0,52.0,29.86,WSW,242,5.0,10.0,38,0.00,,,0.00,,2013-07-21 12:43:00,
2013-07-21 05:53:00,80.0,52.0,29.87,WSW,251,2.0,8.0,38,0.00,,,0.00,,2013-07-21 12:53:00,
2013-07-21 06:01:00,80.0,52.0,29.87,SW,234,2.0,6.0,38,0.00,,,0.00,,2013-07-21 13:01:00,
2013-07-21 06:11:00,80.0,53.0,29.87,West,260,3.0,9.0,40,0.00,,,0.00,,2013-07-21 13:11:00,
2013-07-21 06:22:00,81.0,56.0,29.87,SW,214,6.0,10.0,43,0.00,,,0.00,,2013-07-21 13:22:00,
2013-07-21 06:42:00,82.0,57.0,29.87,SSW,206,5.0,11.0,43,0.00,,,0.00,,2013-07-21 13:42:00,
2013-07-21 06:52:00,82.0,57.0,29.87,South,188,10.0,14.0,42,0.00,,,0.00,,2013-07-21 13:52:00,
2013-07-21 07:01:00,83.0,58.0,29.86,SSW,212,11.0,17.0,42,0.00,,,0.00,,2013-07-21 14:01:00,
2013-07-21 07:43:00,83.0,56.0,29.86,SW,227,9.0,13.0,40,0.00,,,0.00,,2013-07-21 14:43:00,
2013-07-21 07:53:00,84.0,56.0,29.86,West,275,4.0,9.0,38,0.00,,,0.00,,2013-07-21 14:53:00,
2013-07-21 08:02:00,85.0,56.0,29.87,WSW,249,4.0,7.0,37,0.00,,,0.00,,2013-07-21 15:02:00,
2013-07-21 08:11:00,86.0,56.0,29.87,WSW,256,1.0,7.0,36,0.00,,,0.00,,2013-07-21 15:11:00,
2013-07-21 08:22:00,86.0,55.0,29.88,SW,234,2.0,5.0,35,0.00,,,0.00,,2013-07-21 15:22:00,
2013-07-21 08:32:00,87.0,55.0,29.88,SW,234,0.0,1.0,34,0.00,,,0.00,,2013-07-21 15:32:00,
2013-07-21 08:42:00,88.0,54.0,29.88,South,175,2.0,4.0,32,0.00,,,0.00,,2013-07-21 15:42:00,
2013-07-21 08:52:00,90.0,53.0,29.88,SSE,159,1.0,6.0,29,0.00,,,0.00,,2013-07-21 15:52:00,
2013-07-21 09:01:00,89.0,56.0,29.88,ESE,122,4.0,7.0,33,0.00,,,0.00,,2013-07-21 16:01:00,
2013-07-21 09:11:00,89.0,57.0,29.88,East,97,5.0,11.0,34,0.00,,,0.00,,2013-07-21 16:11:00,
2013-07-21 09:22:00,90.0,56.0,29.88,East,90,4.0,7.0,32,0.00,,,0.00,,2013-07-21 16:22:00,
2013-07-21 09:32:00,91.0,56.0,29.88,SSE,152,2.0,9.0,31,0.00,,,0.00,,2013-07-21 16:32:00,
2013-07-21 09:42:00,92.0,56.0,29.88,East,94,3.0,6.0,30,0.00,,,0.00,,2013-07-21 16:42:00,
2013-07-21 09:52:00,90.0,54.0,29.88,East,99,1.0,5.0,30,0.00,,,0.00,,2013-07-21 16:52:00,
2013-07-21 10:01:00,91.0,55.0,29.88,ESE,117,0.0,4.0,30,0.00,,,0.00,,2013-07-21 17:01:00,
2013-07-21 10:11:00,92.0,55.0,29.89,South,180,0.0,6.0,29,0.00,,,0.00,,2013-07-21 17:11:00,
2013-07-21 10:33:00,93.0,54.0,29.88,South,178,4.0,10.0,27,0.00,,,0.00,,2013-07-21 17:33:00,
2013-07-21 10:42:00,95.0,54.0,29.88,South,190,5.0,12.0,25,0.00,,,0.00,,2013-07-21 17:42:00,
2013-07-21 10:53:00,96.0,54.0,29.88,SW,231,6.0,12.0,25,0.00,,,0.00,,2013-07-21 17:53:00,
2013-07-21 11:01:00,96.0,54.0,29.88,SSW,202,5.0,13.0,25,0.00,,,0.00,,2013-07-21 18:01:00,
2013-07-21 11:11:00,97.0,55.0,29.88,SW,232,7.0,13.0,25,0.00,,,0.00,,2013-07-21 18:11:00,
2013-07-21 11:32:00,98.0,55.0,29.88,East,90,4.0,12.0,24,0.00,,,0.00,,2013-07-21 18:32:00,
2013-07-21 11:43:00,98.0,56.0,29.88,South,176,4.0,9.0,25,0.00,,,0.00,,2013-07-21 18:43:00,
2013-07-21 11:52:00,99.0,57.0,29.88,ENE,71,4.0,14.0,25,0.00,,,0.00,,2013-07-21 18:52:00,
2013-07-21 12:01:00,99.0,58.0,29.88,SSE,163,0.0,9.0,26,0.00,,,0.00,,2013-07-21 19:01:00,
2013-07-21 12:11:00,98.0,57.0,29.88,SE,146,2.0,11.0,26,0.00,,,0.00,,2013-07-21 19:11:00,
2013-07-21 12:32:00,100.0,59.0,29.88,SE,124,6.0,13.0,26,0.00,,,0.00,,2013-07-21 19:32:00,
2013-07-21 12:42:00,99.0,58.0,29.87,SE,129,4.0,16.0,26,0.00,,,0.00,,2013-07-21 19:42:00,
2013-07-21 12:52:00,101.0,59.0,29.87,East,92,1.0,10.0,25,0.00,,,0.00,,2013-07-21 19:52:00,
2013-07-21 13:01:00,101.0,59.0,29.87,SW,221,9.0,13.0,25,0.00,,,0.00,,2013-07-21 20:01:00,
2013-07-21 13:11:00,100.0,59.0,29.87,SSE,148,11.0,17.0,26,0.00,,,0.00,,2013-07-21 20:11:00,
2013-07-21 13:22:00,98.0,58.0,29.87,SSE,153,12.0,15.0,27,0.00,,,0.00,,2013-07-21 20:22:00,
2013-07-21 13:32:00,98.0,58.0,29.87,SSE,163,9.0,18.0,27,0.00,,,0.00,,2013-07-21 20:32:00,
2013-07-21 13:42:00,98.0,57.0,29.87,SSE,167,6.0,15.0,26,0.00,,,0.00,,2013-07-21 20:42:00,
2013-07-21 13:52:00,99.0,58.0,29.87,SE,134,5.0,13.0,26,0.00,,,0.00,,2013-07-21 20:52:00,
2013-07-21 14:01:00,100.0,58.0,29.87,South,187,9.0,12.0,25,0.00,,,0.00,,2013-07-21 21:01:00,
2013-07-21 14:11:00,101.0,60.0,29.87,South,169,7.0,14.0,26,0.00,,,0.00,,2013-07-21 21:11:00,
2013-07-21 14:22:00,99.0,58.0,29.87,ESE,121,10.0,17.0,26,0.00,,,0.00,,2013-07-21 21:22:00,
2013-07-21 14:32:00,99.0,57.0,29.87,ESE,121,6.0,13.0,25,0.00,,,0.00,,2013-07-21 21:32:00,
2013-07-21 14:43:00,99.0,57.0,29.87,SE,146,5.0,15.0,25,0.00,,,0.00,,2013-07-21 21:43:00,
2013-07-21 14:52:00,98.0,56.0,29.88,ESE,102,5.0,21.0,25,0.00,,,0.00,,2013-07-21 21:52:00,
2013-07-21 15:01:00,97.0,56.0,29.88,East,91,6.0,18.0,26,0.00,,,0.00,,2013-07-21 22:01:00,
2013-07-21 15:11:00,97.0,56.0,29.88,NE,52,5.0,13.0,26,0.00,,,0.00,,2013-07-21 22:11:00,
2013-07-21 15:21:00,98.0,57.0,29.88,East,98,6.0,16.0,26,0.00,,,0.00,,2013-07-21 22:21:00,
2013-07-21 15:32:00,98.0,57.0,29.88,East,98,6.0,16.0,26,0.00,,,0.00,,2013-07-21 22:32:00,
2013-07-21 15:42:00,97.0,57.0,29.87,ESE,118,8.0,16.0,27,0.00,,,0.00,,2013-07-21 22:42:00,
2013-07-21 15:52:00,98.0,57.0,29.87,SE,138,6.0,22.0,26,0.00,,,0.00,,2013-07-21 22:52:00,
2013-07-21 16:01:00,98.0,57.0,29.87,SE,143,5.0,19.0,26,0.00,,,0.00,,2013-07-21 23:01:00,
2013-07-21 16:11:00,98.0,57.0,29.87,ESE,116,9.0,19.0,26,0.00,,,0.00,,2013-07-21 23:11:00,
2013-07-21 16:42:00,98.0,56.0,29.86,SSE,155,5.0,14.0,25,0.00,,,0.00,,2013-07-21 23:42:00,
2013-07-21 16:52:00,97.0,56.0,29.86,East,82,4.0,13.0,26,0.00,,,0.00,,2013-07-21 23:52:00,
2013-07-21 17:01:00,96.0,56.0,29.86,SE,142,6.0,12.0,26,0.00,,,0.00,,2013-07-22 00:01:00,
2013-07-21 17:11:00,96.0,56.0,29.85,SSE,155,5.0,14.0,26,0.00,,,0.00,,2013-07-22 00:11:00,
2013-07-21 17:22:00,96.0,56.0,29.85,SSE,150,7.0,13.0,26,0.00,,,0.00,,2013-07-22 00:22:00,
2013-07-21 17:32:00,96.0,56.0,29.85,South,175,13.0,16.0,26,0.00,,,0.00,,2013-07-22 00:32:00,
2013-07-21 17:42:00,96.0,56.0,29.85,South,187,6.0,13.0,26,0.00,,,0.00,,2013-07-22 00:42:00,
2013-07-21 17:52:00,96.0,56.0,29.85,SW,217,5.0,13.0,26,0.00,,,0.00,,2013-07-22 00:52:00,
2013-07-21 18:01:00,96.0,56.0,29.85,SSE,149,1.0,10.0,26,0.00,,,0.00,,2013-07-22 01:01:00,
2013-07-21 18:11:00,96.0,56.0,29.84,SSW,209,9.0,12.0,26,0.00,,,0.00,,2013-07-22 01:11:00,
2013-07-21 18:21:00,95.0,55.0,29.84,South,179,7.0,10.0,26,0.00,,,0.00,,2013-07-22 01:21:00,
2013-07-21 18:32:00,96.0,56.0,29.84,South,191,6.0,10.0,26,0.00,,,0.00,,2013-07-22 01:32:00,
2013-07-21 18:42:00,95.0,55.0,29.85,South,188,0.0,9.0,26,0.00,,,0.00,,2013-07-22 01:42:00,
2013-07-21 18:52:00,96.0,56.0,29.85,SE,140,7.0,10.0,26,0.00,,,0.00,,2013-07-22 01:52:00,
2013-07-21 19:01:00,95.0,56.0,29.85,South,169,5.0,12.0,27,0.00,,,0.00,,2013-07-22 02:01:00,
2013-07-21 19:11:00,95.0,56.0,29.85,SSE,153,7.0,11.0,27,0.00,,,0.00,,2013-07-22 02:11:00,
2013-07-21 19:22:00,95.0,57.0,29.85,South,178,9.0,13.0,28,0.00,,,0.00,,2013-07-22 02:22:00,
2013-07-21 19:32:00,94.0,56.0,29.85,South,184,12.0,15.0,28,0.00,,,0.00,,2013-07-22 02:32:00,
2013-07-21 19:43:00,94.0,57.0,29.85,South,187,10.0,16.0,29,0.00,,,0.00,,2013-07-22 02:43:00,
2013-07-21 19:52:00,93.0,56.0,29.85,South,182,15.0,18.0,29,0.00,,,0.00,,2013-07-22 02:52:00,
2013-07-21 20:01:00,93.0,58.0,29.87,SSE,165,10.0,16.0,31,0.00,,,0.00,,2013-07-22 03:01:00,
2013-07-21 20:11:00,92.0,56.0,29.88,ESE,123,9.0,12.0,30,0.00,,,0.00,,2013-07-22 03:11:00,
2013-07-21 20:22:00,92.0,57.0,29.85,SE,137,9.0,15.0,31,0.00,,,0.00,,2013-07-22 03:22:00,
2013-07-21 20:32:00,92.0,57.0,29.85,SSE,157,7.0,14.0,31,0.00,,,0.00,,2013-07-22 03:32:00,
2013-07-21 21:01:00,89.0,63.0,29.87,SSE,159,16.0,23.0,42,0.00,,,0.00,,2013-07-22 04:01:00,
2013-07-21 21:11:00,88.0,60.0,29.88,SE,144,18.0,24.0,39,0.00,,,0.00,,2013-07-22 04:11:00,
2013-07-21 21:22:00,88.0,61.0,29.88,SSE,161,18.0,20.0,40,0.00,,,0.00,,2013-07-22 04:22:00,
2013-07-21 21:33:00,88.0,62.0,29.88,SSE,150,18.0,23.0,42,0.00,,,0.00,,2013-07-22 04:33:00,
2013-07-21 21:42:00,88.0,63.0,29.90,SSE,148,12.0,21.0,43,0.00,,,0.00,,2013-07-22 04:42:00,
2013-07-21 22:01:00,87.0,62.0,29.92,SE,132,17.0,21.0,44,0.00,,,0.00,,2013-07-22 05:01:00,
2013-07-21 22:11:00,87.0,65.0,29.96,SE,136,19.0,27.0,49,0.00,,,0.00,,2013-07-22 05:11:00,
2013-07-21 22:22:00,85.0,64.0,29.96,SE,128,17.0,22.0,50,0.00,,,0.00,,2013-07-22 05:22:00,
2013-07-21 22:32:00,85.0,65.0,29.96,SE,127,17.0,21.0,52,0.00,,,0.00,,2013-07-22 05:32:00,
2013-07-21 22:42:00,85.0,66.0,29.97,SE,130,12.0,19.0,53,0.00,,,0.00,,2013-07-22 05:42:00,
2013-07-21 22:52:00,85.0,65.0,29.98,SE,128,9.0,15.0,52,0.00,,,0.00,,2013-07-22 05:52:00,
2013-07-21 23:01:00,85.0,65.0,29.95,SE,138,7.0,12.0,52,0.00,,,0.00,,2013-07-22 06:01:00,
2013-07-21 23:11:00,84.0,66.0,29.94,SSE,152,6.0,9.0,55,0.00,,,0.00,,2013-07-22 06:11:00,
2013-07-21 23:32:00,84.0,64.0,29.94,SSE,168,7.0,11.0,51,0.00,,,0.00,,2013-07-22 06:32:00,
2013-07-21 23:43:00,84.0,63.0,29.94,South,183,10.0,17.0,50,0.00,,,0.00,,2013-07-22 06:43:00,
2013-07-21 23:52:00,84.0,64.0,29.94,SSW,192,10.0,15.0,51,0.00,,,0.00,,2013-07-22 06:52:00,